sensor_id;sensor_type;location;lat;lon;timestamp;pressure;altitude;pressure_sealevel;temperature;humidity
5691;BME280;2870;42.680;23.364;2022-10-31T00:00:08;95613.84;;;15.71;54.56
5691;BME280;2870;42.680;23.364;2022-10-31T00:02:35;95613.09;;;15.70;54.74
5691;BME280;2870;42.680;23.364;2022-10-31T00:05:02;95609.97;;;15.66;54.94
5691;BME280;2870;42.680;23.364;2022-10-31T00:07:29;95615.84;;;15.60;55.37
5691;BME280;2870;42.680;23.364;2022-10-31T00:09:57;95619.94;;;15.67;54.99
5691;BME280;2870;42.680;23.364;2022-10-31T00:12:24;95617.09;;;15.67;55.18
5691;BME280;2870;42.680;23.364;2022-10-31T00:14:51;95616.75;;;15.63;56.03
5691;BME280;2870;42.680;23.364;2022-10-31T00:17:17;95610.84;;;15.51;55.71
5691;BME280;2870;42.680;23.364;2022-10-31T00:19:45;95619.72;;;15.48;56.26
5691;BME280;2870;42.680;23.364;2022-10-31T00:22:11;95622.63;;;15.40;56.22
5691;BME280;2870;42.680;23.364;2022-10-31T00:24:39;95615.16;;;15.52;56.44
5691;BME280;2870;42.680;23.364;2022-10-31T00:27:07;95608.34;;;15.55;56.45
5691;BME280;2870;42.680;23.364;2022-10-31T00:29:34;95619.72;;;15.48;56.68
5691;BME280;2870;42.680;23.364;2022-10-31T00:32:01;95613.91;;;15.46;56.43
5691;BME280;2870;42.680;23.364;2022-10-31T00:34:28;95608.25;;;15.46;56.73
5691;BME280;2870;42.680;23.364;2022-10-31T00:36:55;95602.94;;;15.32;57.50
5691;BME280;2870;42.680;23.364;2022-10-31T00:39:22;95611.56;;;15.34;57.20
5691;BME280;2870;42.680;23.364;2022-10-31T00:41:49;95611.91;;;15.21;57.50
5691;BME280;2870;42.680;23.364;2022-10-31T00:44:17;95604.66;;;15.28;57.58
5691;BME280;2870;42.680;23.364;2022-10-31T00:46:44;95605.31;;;15.19;58.24
5691;BME280;2870;42.680;23.364;2022-10-31T00:49:10;95611.22;;;15.13;58.04
5691;BME280;2870;42.680;23.364;2022-10-31T00:51:38;95603.06;;;15.17;58.31
5691;BME280;2870;42.680;23.364;2022-10-31T00:54:05;95603.75;;;15.25;58.38
5691;BME280;2870;42.680;23.364;2022-10-31T00:56:32;95604.09;;;15.29;57.96
5691;BME280;2870;42.680;23.364;2022-10-31T00:58:59;95616.31;;;15.32;58.21
5691;BME280;2870;42.680;23.364;2022-10-31T01:01:27;95612.41;;;15.27;58.47
5691;BME280;2870;42.680;23.364;2022-10-31T01:03:54;95616.06;;;15.20;58.96
5691;BME280;2870;42.680;23.364;2022-10-31T01:06:21;95616.31;;;15.15;59.15
5691;BME280;2870;42.680;23.364;2022-10-31T01:08:48;95618.50;;;14.99;58.69
5691;BME280;2870;42.680;23.364;2022-10-31T01:11:16;95620.16;;;15.02;59.37
5691;BME280;2870;42.680;23.364;2022-10-31T01:13:44;95622.44;;;14.46;60.99
5691;BME280;2870;42.680;23.364;2022-10-31T01:16:13;95618.50;;;14.49;60.90
5691;BME280;2870;42.680;23.364;2022-10-31T01:18:43;95627.75;;;14.42;61.36
5691;BME280;2870;42.680;23.364;2022-10-31T01:21:12;95619.41;;;14.19;63.02
5691;BME280;2870;42.680;23.364;2022-10-31T01:23:40;95627.00;;;14.01;63.70
5691;BME280;2870;42.680;23.364;2022-10-31T01:26:09;95624.41;;;13.95;64.25
5691;BME280;2870;42.680;23.364;2022-10-31T01:28:39;95631.34;;;13.94;64.07
5691;BME280;2870;42.680;23.364;2022-10-31T01:31:10;95641.19;;;13.86;64.44
5691;BME280;2870;42.680;23.364;2022-10-31T01:33:37;95633.34;;;13.69;64.48
5691;BME280;2870;42.680;23.364;2022-10-31T01:36:14;95641.19;;;13.78;64.99
5691;BME280;2870;42.680;23.364;2022-10-31T01:38:42;95638.56;;;13.72;65.40
5691;BME280;2870;42.680;23.364;2022-10-31T01:41:11;95630.47;;;13.84;64.74
5691;BME280;2870;42.680;23.364;2022-10-31T01:43:45;95628.75;;;13.33;65.94
5691;BME280;2870;42.680;23.364;2022-10-31T01:46:14;95633.06;;;13.26;67.21
5691;BME280;2870;42.680;23.364;2022-10-31T01:48:43;95647.34;;;13.29;66.84
5691;BME280;2870;42.680;23.364;2022-10-31T01:51:13;95607.56;;;12.94;66.57
5691;BME280;2870;42.680;23.364;2022-10-31T01:53:43;95635.28;;;13.20;67.10
5691;BME280;2870;42.680;23.364;2022-10-31T01:56:12;95633.06;;;13.11;67.28
5691;BME280;2870;42.680;23.364;2022-10-31T01:58:39;95628.19;;;13.12;67.33
5691;BME280;2870;42.680;23.364;2022-10-31T02:01:07;95627.03;;;13.15;67.17
5691;BME280;2870;42.680;23.364;2022-10-31T02:03:34;95625.91;;;13.10;67.50
5691;BME280;2870;42.680;23.364;2022-10-31T02:06:03;95633.06;;;13.26;67.74
5691;BME280;2870;42.680;23.364;2022-10-31T02:08:35;95627.06;;;13.30;67.79
5691;BME280;2870;42.680;23.364;2022-10-31T02:11:04;95630.06;;;13.17;67.29
5691;BME280;2870;42.680;23.364;2022-10-31T02:13:33;95624.44;;;13.17;66.81
5691;BME280;2870;42.680;23.364;2022-10-31T02:16:01;95622.91;;;13.31;66.95
5691;BME280;2870;42.680;23.364;2022-10-31T02:18:30;95623.25;;;13.43;66.04
5691;BME280;2870;42.680;23.364;2022-10-31T02:21:06;95628.34;;;13.44;65.87
5691;BME280;2870;42.680;23.364;2022-10-31T02:23:51;95629.84;;;13.15;66.90
5691;BME280;2870;42.680;23.364;2022-10-31T02:29:37;95645.66;;;13.33;67.05
5691;BME280;2870;42.680;23.364;2022-10-31T02:32:17;95643.75;;;13.36;67.97
5691;BME280;2870;42.680;23.364;2022-10-31T02:34:52;95654.66;;;13.39;68.06
5691;BME280;2870;42.680;23.364;2022-10-31T02:37:26;95644.69;;;13.46;67.78
5691;BME280;2870;42.680;23.364;2022-10-31T02:40:01;95647.16;;;13.26;68.25
5691;BME280;2870;42.680;23.364;2022-10-31T02:42:34;95652.34;;;13.61;66.85
5691;BME280;2870;42.680;23.364;2022-10-31T02:45:08;95656.09;;;13.63;67.06
5691;BME280;2870;42.680;23.364;2022-10-31T02:47:41;95650.13;;;13.44;67.95
5691;BME280;2870;42.680;23.364;2022-10-31T02:50:12;95657.69;;;13.34;67.91
5691;BME280;2870;42.680;23.364;2022-10-31T02:52:40;95660.88;;;13.22;68.18
5691;BME280;2870;42.680;23.364;2022-10-31T02:55:12;95663.84;;;13.09;68.46
5691;BME280;2870;42.680;23.364;2022-10-31T02:57:40;95658.97;;;13.02;69.51
5691;BME280;2870;42.680;23.364;2022-10-31T03:03:00;95666.88;;;13.11;69.45
5691;BME280;2870;42.680;23.364;2022-10-31T03:05:40;95661.03;;;13.09;69.40
5691;BME280;2870;42.680;23.364;2022-10-31T03:08:18;95656.72;;;13.08;70.23
5691;BME280;2870;42.680;23.364;2022-10-31T03:10:53;95668.91;;;13.03;69.86
5691;BME280;2870;42.680;23.364;2022-10-31T03:13:26;95669.47;;;13.09;70.53
5691;BME280;2870;42.680;23.364;2022-10-31T03:16:05;95661.22;;;13.19;70.42
5691;BME280;2870;42.680;23.364;2022-10-31T03:18:39;95661.78;;;13.17;69.56
5691;BME280;2870;42.680;23.364;2022-10-31T03:21:09;95656.72;;;13.16;69.50
5691;BME280;2870;42.680;23.364;2022-10-31T03:23:39;95658.59;;;13.13;70.03
5691;BME280;2870;42.680;23.364;2022-10-31T03:26:08;95662.34;;;13.16;70.60
5691;BME280;2870;42.680;23.364;2022-10-31T03:28:39;95661.25;;;13.11;70.77
5691;BME280;2870;42.680;23.364;2022-10-31T03:31:10;95663.47;;;13.13;70.91
5691;BME280;2870;42.680;23.364;2022-10-31T03:33:42;95666.09;;;13.18;70.78
5691;BME280;2870;42.680;23.364;2022-10-31T03:36:12;95662.00;;;13.12;70.34
5691;BME280;2870;42.680;23.364;2022-10-31T03:38:42;95674.00;;;13.12;70.59
5691;BME280;2870;42.680;23.364;2022-10-31T03:41:16;95674.38;;;13.16;70.46
5691;BME280;2870;42.680;23.364;2022-10-31T03:43:51;95682.63;;;13.14;69.96
5691;BME280;2870;42.680;23.364;2022-10-31T03:46:20;95665.16;;;13.08;70.24
5691;BME280;2870;42.680;23.364;2022-10-31T03:48:48;95679.25;;;13.16;69.58
5691;BME280;2870;42.680;23.364;2022-10-31T03:51:20;95693.91;;;13.07;70.51
5691;BME280;2870;42.680;23.364;2022-10-31T03:53:54;95679.63;;;12.97;70.42
5691;BME280;2870;42.680;23.364;2022-10-31T03:56:29;95686.00;;;12.90;71.75
5691;BME280;2870;42.680;23.364;2022-10-31T03:59:01;95686.75;;;12.90;71.01
5691;BME280;2870;42.680;23.364;2022-10-31T04:01:33;95696.13;;;12.85;71.81
5691;BME280;2870;42.680;23.364;2022-10-31T04:04:03;95709.66;;;12.79;71.53
5691;BME280;2870;42.680;23.364;2022-10-31T04:06:32;95697.25;;;12.74;72.14
5691;BME280;2870;42.680;23.364;2022-10-31T04:09:03;95696.84;;;12.70;72.93
5691;BME280;2870;42.680;23.364;2022-10-31T04:11:34;95699.84;;;12.65;72.74
5691;BME280;2870;42.680;23.364;2022-10-31T04:14:04;95705.50;;;12.72;73.51
5691;BME280;2870;42.680;23.364;2022-10-31T04:16:32;95708.69;;;12.69;73.51
5691;BME280;2870;42.680;23.364;2022-10-31T04:18:59;95720.69;;;12.69;73.56
5691;BME280;2870;42.680;23.364;2022-10-31T04:21:28;95707.19;;;12.60;73.54
5691;BME280;2870;42.680;23.364;2022-10-31T04:23:56;95700.59;;;12.58;73.99
5691;BME280;2870;42.680;23.364;2022-10-31T04:26:23;95714.31;;;12.61;73.41
5691;BME280;2870;42.680;23.364;2022-10-31T04:28:49;95714.72;;;12.81;73.95
5691;BME280;2870;42.680;23.364;2022-10-31T04:31:17;95710.78;;;12.84;73.46
5691;BME280;2870;42.680;23.364;2022-10-31T04:33:44;95708.50;;;12.74;74.41
5691;BME280;2870;42.680;23.364;2022-10-31T04:36:12;95707.75;;;12.82;74.37
5691;BME280;2870;42.680;23.364;2022-10-31T04:38:40;95713.22;;;12.80;74.42
5691;BME280;2870;42.680;23.364;2022-10-31T04:41:07;95711.16;;;12.80;74.29
5691;BME280;2870;42.680;23.364;2022-10-31T04:43:34;95711.16;;;12.72;74.32
5691;BME280;2870;42.680;23.364;2022-10-31T04:46:01;95710.00;;;12.76;73.64
5691;BME280;2870;42.680;23.364;2022-10-31T04:48:28;95719.97;;;12.84;74.05
5691;BME280;2870;42.680;23.364;2022-10-31T04:50:58;95717.16;;;12.92;74.17
5691;BME280;2870;42.680;23.364;2022-10-31T04:53:25;95724.69;;;12.89;74.13
5691;BME280;2870;42.680;23.364;2022-10-31T04:55:54;95728.44;;;12.77;74.34
5691;BME280;2870;42.680;23.364;2022-10-31T04:58:20;95726.72;;;12.73;74.40
5691;BME280;2870;42.680;23.364;2022-10-31T05:00:47;95725.78;;;12.79;73.76
5691;BME280;2870;42.680;23.364;2022-10-31T05:03:17;95725.78;;;12.71;74.42
5691;BME280;2870;42.680;23.364;2022-10-31T05:05:45;95726.16;;;12.75;74.18
5691;BME280;2870;42.680;23.364;2022-10-31T05:08:12;95732.00;;;12.92;73.93
5691;BME280;2870;42.680;23.364;2022-10-31T05:10:39;95728.06;;;12.95;73.86
5691;BME280;2870;42.680;23.364;2022-10-31T05:13:08;95725.06;;;12.93;73.48
5691;BME280;2870;42.680;23.364;2022-10-31T05:15:35;95738.25;;;13.21;73.04
5691;BME280;2870;42.680;23.364;2022-10-31T05:18:02;95744.97;;;13.18;72.99
5691;BME280;2870;42.680;23.364;2022-10-31T05:20:30;95746.47;;;13.04;73.39
5691;BME280;2870;42.680;23.364;2022-10-31T05:22:58;95749.47;;;13.14;73.96
5691;BME280;2870;42.680;23.364;2022-10-31T05:25:27;95743.84;;;13.14;73.12
5691;BME280;2870;42.680;23.364;2022-10-31T05:27:56;95754.16;;;12.96;73.90
5691;BME280;2870;42.680;23.364;2022-10-31T05:30:26;95756.22;;;13.03;73.78
5691;BME280;2870;42.680;23.364;2022-10-31T05:32:53;95753.97;;;12.94;74.43
5691;BME280;2870;42.680;23.364;2022-10-31T05:35:22;95754.72;;;13.02;75.21
5691;BME280;2870;42.680;23.364;2022-10-31T05:37:49;95759.22;;;12.97;73.90
5691;BME280;2870;42.680;23.364;2022-10-31T05:40:17;95746.25;;;12.71;75.29
5691;BME280;2870;42.680;23.364;2022-10-31T05:42:46;95755.03;;;12.68;74.91
5691;BME280;2870;42.680;23.364;2022-10-31T05:45:15;95756.19;;;12.72;76.26
5691;BME280;2870;42.680;23.364;2022-10-31T05:47:50;95763.31;;;12.73;76.42
5691;BME280;2870;42.680;23.364;2022-10-31T05:50:17;95764.06;;;12.74;75.44
5691;BME280;2870;42.680;23.364;2022-10-31T05:52:44;95769.13;;;12.76;75.40
5691;BME280;2870;42.680;23.364;2022-10-31T05:55:11;95775.38;;;12.89;75.31
5691;BME280;2870;42.680;23.364;2022-10-31T05:57:38;95766.72;;;12.87;75.12
5691;BME280;2870;42.680;23.364;2022-10-31T06:00:06;95773.44;;;12.69;74.97
5691;BME280;2870;42.680;23.364;2022-10-31T06:02:33;95776.13;;;12.90;74.84
5691;BME280;2870;42.680;23.364;2022-10-31T06:05:02;95783.25;;;12.91;74.49
5691;BME280;2870;42.680;23.364;2022-10-31T06:07:32;95784.78;;;13.07;73.82
5691;BME280;2870;42.680;23.364;2022-10-31T06:09:59;95783.66;;;13.10;73.53
5691;BME280;2870;42.680;23.364;2022-10-31T06:12:26;95780.66;;;13.00;74.22
5691;BME280;2870;42.680;23.364;2022-10-31T06:14:53;95793.00;;;12.90;74.84
5691;BME280;2870;42.680;23.364;2022-10-31T06:17:20;95795.69;;;13.11;74.27
5691;BME280;2870;42.680;23.364;2022-10-31T06:19:47;95797.41;;;13.21;74.04
5691;BME280;2870;42.680;23.364;2022-10-31T06:22:15;95797.63;;;13.39;73.91
5691;BME280;2870;42.680;23.364;2022-10-31T06:24:42;95806.63;;;13.52;72.95
5691;BME280;2870;42.680;23.364;2022-10-31T06:27:09;95811.53;;;13.67;71.58
5691;BME280;2870;42.680;23.364;2022-10-31T06:29:36;95816.03;;;13.55;70.63
5691;BME280;2870;42.680;23.364;2022-10-31T06:32:03;95818.28;;;13.49;71.37
5691;BME280;2870;42.680;23.364;2022-10-31T06:34:30;95818.28;;;13.34;71.12
5691;BME280;2870;42.680;23.364;2022-10-31T06:36:58;95821.28;;;13.59;70.55
5691;BME280;2870;42.680;23.364;2022-10-31T06:39:27;95826.38;;;13.75;69.84
5691;BME280;2870;42.680;23.364;2022-10-31T06:41:53;95827.88;;;13.92;69.68
5691;BME280;2870;42.680;23.364;2022-10-31T06:44:21;95818.66;;;13.84;69.95
5691;BME280;2870;42.680;23.364;2022-10-31T06:46:47;95817.50;;;13.94;69.08
5691;BME280;2870;42.680;23.364;2022-10-31T06:49:14;95811.88;;;14.02;70.04
5691;BME280;2870;42.680;23.364;2022-10-31T06:51:42;95817.59;;;14.35;70.68
5691;BME280;2870;42.680;23.364;2022-10-31T06:54:09;95806.56;;;14.21;68.45
5691;BME280;2870;42.680;23.364;2022-10-31T06:56:37;95824.81;;;14.20;69.69
5691;BME280;2870;42.680;23.364;2022-10-31T06:59:04;95824.63;;;14.11;69.64
5691;BME280;2870;42.680;23.364;2022-10-31T07:01:32;95826.88;;;14.12;69.97
5691;BME280;2870;42.680;23.364;2022-10-31T07:03:59;95823.66;;;14.31;69.74
5691;BME280;2870;42.680;23.364;2022-10-31T07:06:26;95823.06;;;14.32;69.78
5691;BME280;2870;42.680;23.364;2022-10-31T07:08:53;95810.81;;;14.45;69.10
5691;BME280;2870;42.680;23.364;2022-10-31T07:11:20;95820.38;;;14.57;69.38
5691;BME280;2870;42.680;23.364;2022-10-31T07:13:48;95824.63;;;14.81;68.85
5691;BME280;2870;42.680;23.364;2022-10-31T07:16:15;95816.97;;;15.07;66.84
5691;BME280;2870;42.680;23.364;2022-10-31T07:18:42;95815.16;;;15.27;65.75
5691;BME280;2870;42.680;23.364;2022-10-31T07:21:09;95808.09;;;15.35;65.94
5691;BME280;2870;42.680;23.364;2022-10-31T07:23:36;95803.34;;;15.46;65.36
5691;BME280;2870;42.680;23.364;2022-10-31T07:26:04;95794.84;;;15.21;66.22
5691;BME280;2870;42.680;23.364;2022-10-31T07:28:31;95796.38;;;15.14;67.25
5691;BME280;2870;42.680;23.364;2022-10-31T07:30:59;95797.53;;;15.11;67.88
5691;BME280;2870;42.680;23.364;2022-10-31T07:33:26;95797.00;;;15.37;66.91
5691;BME280;2870;42.680;23.364;2022-10-31T07:35:53;95796.69;;;15.51;66.52
5691;BME280;2870;42.680;23.364;2022-10-31T07:38:20;95799.75;;;15.70;66.30
5691;BME280;2870;42.680;23.364;2022-10-31T07:40:49;95803.97;;;15.86;66.26
5691;BME280;2870;42.680;23.364;2022-10-31T07:43:17;95805.78;;;15.74;65.23
5691;BME280;2870;42.680;23.364;2022-10-31T07:45:49;95801.56;;;15.83;65.50
5691;BME280;2870;42.680;23.364;2022-10-31T07:48:17;95801.75;;;16.02;64.71
5691;BME280;2870;42.680;23.364;2022-10-31T07:50:44;95797.00;;;16.05;64.26
5691;BME280;2870;42.680;23.364;2022-10-31T07:53:12;95805.91;;;16.01;64.22
5691;BME280;2870;42.680;23.364;2022-10-31T07:55:39;95802.16;;;16.16;64.10
5691;BME280;2870;42.680;23.364;2022-10-31T07:58:09;95802.00;;;16.31;63.54
5691;BME280;2870;42.680;23.364;2022-10-31T08:00:37;95801.09;;;16.29;63.32
5691;BME280;2870;42.680;23.364;2022-10-31T08:03:05;95803.59;;;16.42;62.53
5691;BME280;2870;42.680;23.364;2022-10-31T08:05:34;95803.44;;;16.40;62.01
5691;BME280;2870;42.680;23.364;2022-10-31T08:08:01;95812.19;;;16.52;62.54
5691;BME280;2870;42.680;23.364;2022-10-31T08:10:29;95799.19;;;16.31;62.55
5691;BME280;2870;42.680;23.364;2022-10-31T08:12:58;95805.78;;;16.34;63.08
5691;BME280;2870;42.680;23.364;2022-10-31T08:15:26;95798.34;;;16.73;62.04
5691;BME280;2870;42.680;23.364;2022-10-31T08:17:53;95797.19;;;16.76;61.44
5691;BME280;2870;42.680;23.364;2022-10-31T08:20:20;95798.34;;;16.90;60.72
5691;BME280;2870;42.680;23.364;2022-10-31T08:22:57;95803.72;;;17.23;60.81
5691;BME280;2870;42.680;23.364;2022-10-31T08:25:26;95803.63;;;17.04;60.01
5691;BME280;2870;42.680;23.364;2022-10-31T08:27:54;95812.00;;;17.38;59.60
5691;BME280;2870;42.680;23.364;2022-10-31T08:30:22;95806.50;;;17.40;59.50
5691;BME280;2870;42.680;23.364;2022-10-31T08:32:57;95805.03;;;17.76;58.50
5691;BME280;2870;42.680;23.364;2022-10-31T08:35:24;95804.56;;;18.94;55.99
5691;BME280;2870;42.680;23.364;2022-10-31T08:37:52;95798.38;;;19.17;54.73
5691;BME280;2870;42.680;23.364;2022-10-31T08:40:21;95790.03;;;19.50;52.51
5691;BME280;2870;42.680;23.364;2022-10-31T08:42:55;95804.59;;;20.37;51.97
5691;BME280;2870;42.680;23.364;2022-10-31T08:45:23;95795.81;;;20.88;49.73
5691;BME280;2870;42.680;23.364;2022-10-31T08:47:50;95798.50;;;21.19;48.26
5691;BME280;2870;42.680;23.364;2022-10-31T08:50:17;95806.31;;;21.87;46.85
5691;BME280;2870;42.680;23.364;2022-10-31T08:52:43;95798.09;;;21.93;46.13
5691;BME280;2870;42.680;23.364;2022-10-31T08:55:10;95806.66;;;22.89;45.77
5691;BME280;2870;42.680;23.364;2022-10-31T08:57:38;95803.28;;;22.43;45.18
5691;BME280;2870;42.680;23.364;2022-10-31T09:00:06;95806.78;;;23.16;43.95
5691;BME280;2870;42.680;23.364;2022-10-31T09:02:33;95806.16;;;24.24;42.55
5691;BME280;2870;42.680;23.364;2022-10-31T09:05:00;95800.25;;;24.77;40.14
5691;BME280;2870;42.680;23.364;2022-10-31T09:07:27;95801.69;;;25.05;39.77
5691;BME280;2870;42.680;23.364;2022-10-31T09:09:54;95802.81;;;25.44;39.10
5691;BME280;2870;42.680;23.364;2022-10-31T09:12:21;95801.06;;;24.93;41.14
5691;BME280;2870;42.680;23.364;2022-10-31T09:14:50;95795.59;;;24.70;42.03
5691;BME280;2870;42.680;23.364;2022-10-31T09:17:17;95795.84;;;24.90;40.11
5691;BME280;2870;42.680;23.364;2022-10-31T09:19:44;95797.00;;;24.98;40.19
5691;BME280;2870;42.680;23.364;2022-10-31T09:22:11;95807.75;;;24.98;39.47
5691;BME280;2870;42.680;23.364;2022-10-31T09:24:38;95784.13;;;24.99;39.46
5691;BME280;2870;42.680;23.364;2022-10-31T09:27:05;95776.41;;;25.47;39.45
5691;BME280;2870;42.680;23.364;2022-10-31T09:29:33;95787.16;;;26.41;37.11
5691;BME280;2870;42.680;23.364;2022-10-31T09:32:01;95783.22;;;26.51;37.52
5691;BME280;2870;42.680;23.364;2022-10-31T09:34:28;95793.19;;;26.65;37.05
5691;BME280;2870;42.680;23.364;2022-10-31T09:36:55;95787.19;;;26.10;37.16
5691;BME280;2870;42.680;23.364;2022-10-31T09:39:22;95790.69;;;25.61;40.05
5691;BME280;2870;42.680;23.364;2022-10-31T09:41:59;95794.56;;;26.47;37.12
5691;BME280;2870;42.680;23.364;2022-10-31T09:44:33;95788.19;;;26.32;37.03
5691;BME280;2870;42.680;23.364;2022-10-31T09:47:10;95788.47;;;25.59;38.41
5691;BME280;2870;42.680;23.364;2022-10-31T09:49:53;95785.34;;;25.85;38.44
5691;BME280;2870;42.680;23.364;2022-10-31T09:52:25;95784.19;;;25.45;39.73
5691;BME280;2870;42.680;23.364;2022-10-31T09:54:57;95780.47;;;25.58;39.27
5691;BME280;2870;42.680;23.364;2022-10-31T09:57:28;95771.75;;;26.19;37.85
5691;BME280;2870;42.680;23.364;2022-10-31T09:59:56;95777.50;;;25.40;38.54
5691;BME280;2870;42.680;23.364;2022-10-31T10:02:28;95770.69;;;25.79;38.69
5691;BME280;2870;42.680;23.364;2022-10-31T10:04:59;95766.81;;;26.37;38.76
5691;BME280;2870;42.680;23.364;2022-10-31T10:07:35;95758.97;;;26.89;36.90
5691;BME280;2870;42.680;23.364;2022-10-31T10:10:14;95759.28;;;26.80;36.26
5691;BME280;2870;42.680;23.364;2022-10-31T10:13:00;95761.41;;;26.12;37.27
5691;BME280;2870;42.680;23.364;2022-10-31T10:15:46;95761.25;;;27.11;36.45
5691;BME280;2870;42.680;23.364;2022-10-31T10:18:25;95745.31;;;26.90;36.73
5691;BME280;2870;42.680;23.364;2022-10-31T10:21:04;95754.03;;;27.10;36.32
5691;BME280;2870;42.680;23.364;2022-10-31T10:23:42;95740.44;;;27.30;35.96
5691;BME280;2870;42.680;23.364;2022-10-31T10:26:16;95724.16;;;26.83;35.83
5691;BME280;2870;42.680;23.364;2022-10-31T10:28:47;95736.88;;;26.27;36.03
5691;BME280;2870;42.680;23.364;2022-10-31T10:31:20;95738.38;;;26.79;36.43
5691;BME280;2870;42.680;23.364;2022-10-31T10:33:59;95722.41;;;26.58;36.49
5691;BME280;2870;42.680;23.364;2022-10-31T10:36:32;95729.88;;;26.48;37.12
5691;BME280;2870;42.680;23.364;2022-10-31T10:39:05;95726.63;;;26.91;36.36
5691;BME280;2870;42.680;23.364;2022-10-31T10:41:36;95730.06;;;27.05;35.21
5691;BME280;2870;42.680;23.364;2022-10-31T10:44:08;95715.13;;;26.91;34.70
5691;BME280;2870;42.680;23.364;2022-10-31T10:46:40;95715.84;;;26.91;35.36
5691;BME280;2870;42.680;23.364;2022-10-31T10:49:31;95706.19;;;25.82;36.22
5691;BME280;2870;42.680;23.364;2022-10-31T10:52:00;95706.72;;;25.15;37.57
5691;BME280;2870;42.680;23.364;2022-10-31T10:54:44;95713.56;;;25.08;38.98
5691;BME280;2870;42.680;23.364;2022-10-31T10:57:27;95701.28;;;24.92;38.59
5691;BME280;2870;42.680;23.364;2022-10-31T10:59:59;95714.44;;;24.97;39.05
5691;BME280;2870;42.680;23.364;2022-10-31T11:02:30;95698.31;;;24.60;38.66
5691;BME280;2870;42.680;23.364;2022-10-31T11:05:00;95697.81;;;24.50;39.93
5691;BME280;2870;42.680;23.364;2022-10-31T11:07:37;95703.75;;;24.83;40.64
5691;BME280;2870;42.680;23.364;2022-10-31T11:10:05;95699.16;;;24.92;39.32
5691;BME280;2870;42.680;23.364;2022-10-31T11:12:38;95698.03;;;24.99;38.90
5691;BME280;2870;42.680;23.364;2022-10-31T11:15:15;95688.38;;;24.47;38.58
5691;BME280;2870;42.680;23.364;2022-10-31T11:17:48;95696.31;;;24.49;37.79
5691;BME280;2870;42.680;23.364;2022-10-31T11:20:30;95689.91;;;24.64;38.05
5691;BME280;2870;42.680;23.364;2022-10-31T11:23:02;95683.84;;;24.88;37.64
5691;BME280;2870;42.680;23.364;2022-10-31T11:25:30;95683.22;;;25.05;37.28
5691;BME280;2870;42.680;23.364;2022-10-31T11:28:02;95685.59;;;25.08;36.83
5691;BME280;2870;42.680;23.364;2022-10-31T11:30:30;95673.41;;;24.94;38.03
5691;BME280;2870;42.680;23.364;2022-10-31T11:32:58;95678.16;;;25.03;37.71
5691;BME280;2870;42.680;23.364;2022-10-31T11:35:26;95674.84;;;25.41;36.97
5691;BME280;2870;42.680;23.364;2022-10-31T11:37:58;95671.75;;;25.05;37.16
5691;BME280;2870;42.680;23.364;2022-10-31T11:40:27;95665.78;;;24.40;37.99
5691;BME280;2870;42.680;23.364;2022-10-31T11:42:56;95659.06;;;24.94;37.92
5691;BME280;2870;42.680;23.364;2022-10-31T11:45:32;95665.25;;;24.89;37.51
5691;BME280;2870;42.680;23.364;2022-10-31T11:48:01;95651.72;;;24.75;38.02
5691;BME280;2870;42.680;23.364;2022-10-31T11:50:33;95657.50;;;25.07;38.17
5691;BME280;2870;42.680;23.364;2022-10-31T11:53:01;95656.88;;;25.24;37.36
5691;BME280;2870;42.680;23.364;2022-10-31T11:55:34;95652.25;;;24.72;37.85
5691;BME280;2870;42.680;23.364;2022-10-31T11:58:03;95647.16;;;24.70;37.68
5691;BME280;2870;42.680;23.364;2022-10-31T12:00:31;95641.69;;;25.06;36.64
5691;BME280;2870;42.680;23.364;2022-10-31T12:03:10;95635.44;;;24.50;38.90
5691;BME280;2870;42.680;23.364;2022-10-31T12:05:42;95640.03;;;24.71;38.38
5691;BME280;2870;42.680;23.364;2022-10-31T12:08:12;95641.97;;;25.12;37.44
5691;BME280;2870;42.680;23.364;2022-10-31T12:10:50;95630.66;;;24.55;37.40
5691;BME280;2870;42.680;23.364;2022-10-31T12:13:30;95641.69;;;25.06;36.63
5691;BME280;2870;42.680;23.364;2022-10-31T12:16:02;95639.66;;;25.24;36.95
5691;BME280;2870;42.680;23.364;2022-10-31T12:18:46;95638.00;;;25.19;36.92
5691;BME280;2870;42.680;23.364;2022-10-31T12:21:27;95634.22;;;24.69;37.00
5691;BME280;2870;42.680;23.364;2022-10-31T12:24:07;95634.81;;;24.97;37.17
5691;BME280;2870;42.680;23.364;2022-10-31T12:26:42;95632.34;;;24.60;37.57
5691;BME280;2870;42.680;23.364;2022-10-31T12:29:23;95631.00;;;24.93;37.41
5691;BME280;2870;42.680;23.364;2022-10-31T12:32:02;95638.69;;;25.04;37.01
5691;BME280;2870;42.680;23.364;2022-10-31T12:34:54;95640.34;;;24.48;37.95
5691;BME280;2870;42.680;23.364;2022-10-31T12:37:33;95629.47;;;24.60;37.71
5691;BME280;2870;42.680;23.364;2022-10-31T12:40:26;95622.97;;;24.30;38.05
5691;BME280;2870;42.680;23.364;2022-10-31T12:43:04;95629.19;;;24.11;38.66
5691;BME280;2870;42.680;23.364;2022-10-31T12:45:41;95635.59;;;24.39;38.34
5691;BME280;2870;42.680;23.364;2022-10-31T12:48:21;95631.91;;;24.36;37.82
5691;BME280;2870;42.680;23.364;2022-10-31T12:50:57;95632.75;;;24.68;38.21
5691;BME280;2870;42.680;23.364;2022-10-31T12:53:36;95627.38;;;24.76;37.60
5691;BME280;2870;42.680;23.364;2022-10-31T12:56:20;95628.13;;;24.77;38.03
5691;BME280;2870;42.680;23.364;2022-10-31T12:58:55;95627.91;;;24.73;37.71
5691;BME280;2870;42.680;23.364;2022-10-31T13:01:25;95625.59;;;24.69;37.71
5691;BME280;2870;42.680;23.364;2022-10-31T13:03:58;95635.50;;;24.66;37.50
5691;BME280;2870;42.680;23.364;2022-10-31T13:06:33;95637.16;;;24.71;37.42
5691;BME280;2870;42.680;23.364;2022-10-31T13:09:06;95638.94;;;24.63;37.87
5691;BME280;2870;42.680;23.364;2022-10-31T13:11:38;95631.50;;;24.28;38.61
5691;BME280;2870;42.680;23.364;2022-10-31T13:14:09;95615.03;;;24.28;38.56
5691;BME280;2870;42.680;23.364;2022-10-31T13:16:40;95622.53;;;24.06;40.20
5691;BME280;2870;42.680;23.364;2022-10-31T13:19:13;95630.88;;;24.16;39.85
5691;BME280;2870;42.680;23.364;2022-10-31T13:21:53;95624.00;;;24.07;40.49
5691;BME280;2870;42.680;23.364;2022-10-31T13:24:28;95630.56;;;24.23;39.22
5691;BME280;2870;42.680;23.364;2022-10-31T13:26:58;95621.66;;;24.17;39.03
5691;BME280;2870;42.680;23.364;2022-10-31T13:29:30;95624.81;;;24.23;38.81
5691;BME280;2870;42.680;23.364;2022-10-31T13:31:59;95618.34;;;24.23;39.76